Time;durP1;ratioP1;P1;durP2;ratioP2;P2;SDS_P1;SDS_P2;PMS_P1;PMS_P2;Temp;Humidity;BMP_temperature;BMP_pressure;BME280_temperature;BME280_humidity;BME280_pressure;Samples;Min_cycle;Max_cycle;Signal;HPM_P1;HPM_P2
2022/07/15 00:00:31;;;;;;;9.73;1.30;;;16.90;99.90;;;;;;5078939;28;20048;-69
2022/07/15 00:02:58;;;;;;;12.05;1.40;;;16.80;99.90;;;;;;5078695;28;20043;-69
2022/07/15 00:05:24;;;;;;;12.50;1.40;;;16.80;99.90;;;;;;5078791;28;20329;-69
2022/07/15 00:07:50;;;;;;;9.48;1.98;;;16.90;99.90;;;;;;5078539;28;20057;-69
2022/07/15 00:10:18;;;;;;;9.80;1.50;;;16.90;99.90;;;;;;5078714;28;20046;-69
2022/07/15 00:12:52;;;;;;;3.67;1.23;;;16.90;99.90;;;;;;5078500;28;20419;-69
2022/07/15 00:15:24;;;;;;;8.68;1.70;;;16.80;99.90;;;;;;5078075;28;20483;-69
2022/07/15 00:17:51;;;;;;;7.57;1.05;;;16.70;99.90;;;;;;5077603;28;20048;-69
2022/07/15 00:20:18;;;;;;;9.07;1.20;;;16.80;99.90;;;;;;5078129;28;20076;-70
2022/07/15 00:22:44;;;;;;;5.07;1.02;;;16.80;99.90;;;;;;5078210;28;20044;-69
2022/07/15 00:25:14;;;;;;;8.15;1.15;;;16.80;99.90;;;;;;5077876;28;20040;-69
2022/07/15 00:27:51;;;;;;;5.07;1.25;;;16.70;99.90;;;;;;5077892;28;20054;-70
2022/07/15 00:30:17;;;;;;;9.30;1.27;;;16.70;99.90;;;;;;5078382;28;20036;-70
2022/07/15 00:32:43;;;;;;;4.43;1.00;;;16.80;99.90;;;;;;5078196;28;20037;-70
2022/07/15 00:35:08;;;;;;;9.05;1.15;;;16.80;99.90;;;;;;5078185;28;20044;-70
2022/07/15 00:37:34;;;;;;;7.00;0.85;;;16.70;99.90;;;;;;5077070;28;20036;-70
2022/07/15 00:40:00;;;;;;;7.55;1.40;;;16.70;99.90;;;;;;5078138;28;20056;-70
2022/07/15 00:42:44;;;;;;;11.60;1.13;;;16.80;99.90;;;;;;5078076;28;20388;-70
2022/07/15 00:45:18;;;;;;;6.03;1.20;;;16.70;99.90;;;;;;5077977;28;20049;-70
2022/07/15 00:47:45;;;;;;;8.20;1.00;;;16.70;99.90;;;;;;5077667;28;20041;-70
2022/07/15 00:50:12;;;;;;;9.35;1.15;;;16.70;99.90;;;;;;5077741;28;20076;-69
2022/07/15 00:52:41;;;;;;;6.53;1.23;;;16.70;99.90;;;;;;5078065;28;20321;-69
2022/07/15 00:55:13;;;;;;;6.75;0.90;;;16.70;99.90;;;;;;5077256;28;20162;-70
2022/07/15 00:57:43;;;;;;;5.78;1.10;;;16.70;99.90;;;;;;5076676;28;20083;-70
2022/07/15 01:00:11;;;;;;;5.38;1.20;;;16.70;99.90;;;;;;5077724;28;20120;-69
2022/07/15 01:02:38;;;;;;;6.45;1.10;;;16.70;99.90;;;;;;5077856;28;20040;-69
2022/07/15 01:05:06;;;;;;;7.90;1.17;;;16.70;99.90;;;;;;5077504;28;20089;-69
2022/07/15 01:07:33;;;;;;;8.45;1.00;;;16.60;99.90;;;;;;5077291;28;20434;-69
2022/07/15 01:09:59;;;;;;;7.65;1.00;;;16.50;99.90;;;;;;5077292;28;20041;-69
2022/07/15 01:12:26;;;;;;;8.75;1.40;;;16.40;99.90;;;;;;5077323;28;20033;-69
2022/07/15 01:14:52;;;;;;;6.63;1.00;;;16.50;99.90;;;;;;5109819;28;20043;-70
2022/07/15 01:17:17;;;;;;;8.73;1.30;;;16.40;99.90;;;;;;5076121;28;20049;-69
2022/07/15 01:19:43;;;;;;;8.57;1.30;;;16.40;99.90;;;;;;5077183;28;20127;-70
2022/07/15 01:22:09;;;;;;;5.57;0.80;;;16.30;99.90;;;;;;5077224;28;20052;-69
2022/07/15 01:24:35;;;;;;;8.05;1.50;;;16.20;99.90;;;;;;5077137;28;20043;-69
2022/07/15 01:27:01;;;;;;;6.00;1.02;;;16.20;99.90;;;;;;5076078;28;20060;-69
2022/07/15 01:29:27;;;;;;;6.70;1.00;;;16.20;99.90;;;;;;5077117;28;20360;-69
2022/07/15 01:31:54;;;;;;;6.45;0.77;;;16.20;99.90;;;;;;5077009;28;20393;-70
2022/07/15 01:34:19;;;;;;;7.00;0.85;;;16.10;99.90;;;;;;5110258;28;20068;-69
2022/07/15 01:36:45;;;;;;;6.40;1.30;;;16.20;99.90;;;;;;5076843;28;20075;-70
2022/07/15 01:39:11;;;;;;;4.53;0.93;;;16.20;99.90;;;;;;5077087;28;20044;-69
2022/07/15 01:41:37;;;;;;;7.00;0.90;;;16.30;99.90;;;;;;5076791;28;20102;-69
2022/07/15 01:44:03;;;;;;;5.18;0.88;;;16.30;99.90;;;;;;5076087;28;20040;-70
2022/07/15 01:46:29;;;;;;;7.15;1.17;;;16.20;99.90;;;;;;5076747;28;20056;-70
2022/07/15 01:51:39;;;;;;;4.88;1.13;;;16.20;99.90;;;;;;5077078;28;20337;-69
2022/07/15 01:54:05;;;;;;;3.60;0.75;;;16.30;99.90;;;;;;5076562;28;20376;-69
2022/07/15 01:56:31;;;;;;;7.22;1.20;;;16.40;99.90;;;;;;5076414;28;20074;-69
2022/07/15 01:58:56;;;;;;;10.20;1.10;;;16.40;99.90;;;;;;5076610;28;20120;-70
2022/07/15 02:01:22;;;;;;;7.55;1.40;;;16.40;99.90;;;;;;5076678;28;20094;-69
2022/07/15 02:03:48;;;;;;;7.22;1.17;;;16.40;99.90;;;;;;5076466;28;20075;-69
2022/07/15 02:06:13;;;;;;;6.70;1.17;;;16.50;99.90;;;;;;5076563;28;20044;-70
2022/07/15 02:08:39;;;;;;;7.95;1.02;;;16.50;99.90;;;;;;5076226;28;20039;-70
2022/07/15 02:11:06;;;;;;;7.35;1.00;;;16.40;99.90;;;;;;5076562;28;20093;-70
2022/07/15 02:13:31;;;;;;;5.65;1.20;;;16.50;99.90;;;;;;5076702;28;20115;-69
2022/07/15 02:15:57;;;;;;;6.57;0.88;;;16.40;99.90;;;;;;5076311;28;20121;-70
2022/07/15 02:18:23;;;;;;;5.93;0.98;;;16.40;99.90;;;;;;5076436;28;20036;-70
2022/07/15 02:20:48;;;;;;;6.90;1.00;;;16.40;99.90;;;;;;5076512;28;20040;-70
2022/07/15 02:23:14;;;;;;;8.05;1.00;;;16.30;99.90;;;;;;5076448;28;20044;-69
2022/07/15 02:25:41;;;;;;;4.63;0.70;;;16.30;99.90;;;;;;5076013;28;20080;-69
2022/07/15 02:28:07;;;;;;;7.32;0.80;;;16.20;99.90;;;;;;5075977;28;20052;-69
2022/07/15 02:30:38;;;;;;;6.45;0.82;;;16.00;99.90;;;;;;5076425;28;20040;-69
2022/07/15 02:33:04;;;;;;;5.20;0.88;;;16.00;99.90;;;;;;5076223;28;20043;-69
2022/07/15 02:35:31;;;;;;;5.68;0.98;;;15.90;99.90;;;;;;5076359;28;20082;-69
2022/07/15 02:37:57;;;;;;;5.88;0.80;;;15.80;99.90;;;;;;5076087;28;20115;-69
2022/07/15 02:40:23;;;;;;;5.65;1.15;;;15.70;99.90;;;;;;5078718;28;20041;-69
2022/07/15 02:42:51;;;;;;;9.82;0.90;;;15.60;99.90;;;;;;5080162;28;20040;-70
2022/07/15 02:45:17;;;;;;;5.10;0.60;;;15.60;99.90;;;;;;5080340;28;20073;-68
2022/07/15 02:47:43;;;;;;;6.05;0.88;;;15.50;99.90;;;;;;5079967;28;20044;-69
2022/07/15 02:50:09;;;;;;;5.50;0.80;;;15.50;99.90;;;;;;5080086;28;20043;-69
2022/07/15 02:52:35;;;;;;;6.80;1.35;;;15.40;99.90;;;;;;5079734;28;20095;-69
2022/07/15 02:55:01;;;;;;;6.72;0.93;;;15.30;99.90;;;;;;5080040;28;20166;-69
2022/07/15 02:57:27;;;;;;;11.98;1.25;;;15.20;99.90;;;;;;5079710;28;20173;-69
2022/07/15 02:59:54;;;;;;;7.40;1.30;;;15.20;99.90;;;;;;5079859;28;20048;-69
2022/07/15 03:02:19;;;;;;;5.38;0.93;;;15.20;99.90;;;;;;5079879;28;20044;-69
2022/07/15 03:04:45;;;;;;;6.28;1.10;;;15.20;99.90;;;;;;5079698;28;20037;-69
2022/07/15 03:07:11;;;;;;;7.97;1.25;;;15.10;99.90;;;;;;5078783;28;20418;-69
2022/07/15 03:09:37;;;;;;;4.20;0.80;;;15.10;99.90;;;;;;5079657;28;20037;-68
2022/07/15 03:12:03;;;;;;;6.70;1.08;;;15.10;99.90;;;;;;5079827;28;20043;-70
2022/07/15 03:14:29;;;;;;;7.10;1.10;;;15.10;99.90;;;;;;5079727;28;20038;-69
2022/07/15 03:16:55;;;;;;;7.13;1.10;;;15.00;99.90;;;;;;5112436;28;20515;-69
2022/07/15 03:19:21;;;;;;;6.80;1.02;;;15.10;99.90;;;;;;5079488;28;20043;-69
2022/07/15 03:21:48;;;;;;;5.05;1.00;;;15.10;99.90;;;;;;5079180;28;20044;-69
2022/07/15 03:24:14;;;;;;;5.10;1.02;;;15.00;99.90;;;;;;5079348;28;20484;-69
2022/07/15 03:26:40;;;;;;;8.02;0.90;;;15.00;99.90;;;;;;5078846;28;20100;-69
2022/07/15 03:29:06;;;;;;;5.60;1.10;;;15.00;99.90;;;;;;5079442;28;20051;-69
2022/07/15 03:31:32;;;;;;;7.13;0.90;;;15.00;99.90;;;;;;5079341;28;20037;-69
2022/07/15 03:33:58;;;;;;;5.88;1.00;;;15.00;99.90;;;;;;5112080;28;20036;-69
2022/07/15 03:36:24;;;;;;;6.65;1.42;;;15.00;99.90;;;;;;5079256;28;20063;-70
2022/07/15 03:38:51;;;;;;;5.22;0.93;;;15.00;99.90;;;;;;5079388;28;20052;-69
2022/07/15 03:41:21;;;;;;;6.80;1.30;;;15.00;99.90;;;;;;5112079;28;20055;-69
2022/07/15 03:43:52;;;;;;;4.25;0.82;;;15.10;99.90;;;;;;5078195;28;20036;-69
2022/07/15 03:46:18;;;;;;;4.63;1.17;;;15.10;99.90;;;;;;5076364;28;20117;-69
2022/07/15 03:48:43;;;;;;;7.68;0.88;;;15.20;99.90;;;;;;5078599;28;20410;-69
2022/07/15 03:51:09;;;;;;;4.93;1.00;;;15.20;99.90;;;;;;5077846;28;20426;-69
2022/07/15 03:53:35;;;;;;;4.88;0.85;;;15.20;99.90;;;;;;5078835;28;20040;-69
2022/07/15 03:56:00;;;;;;;5.30;0.90;;;15.20;99.90;;;;;;5078573;28;20489;-69
2022/07/15 03:58:28;;;;;;;4.97;0.80;;;15.20;99.90;;;;;;5077896;28;20413;-69
2022/07/15 04:00:54;;;;;;;6.45;0.82;;;15.30;99.90;;;;;;5078733;28;20037;-70
2022/07/15 04:03:20;;;;;;;4.20;0.73;;;15.30;99.90;;;;;;5078828;28;20102;-69
2022/07/15 04:05:45;;;;;;;6.03;0.98;;;15.40;99.90;;;;;;5077566;28;20037;-69
2022/07/15 04:08:11;;;;;;;5.50;0.88;;;15.50;99.90;;;;;;5078788;28;20044;-69
2022/07/15 04:10:37;;;;;;;2.47;0.80;;;15.50;99.90;;;;;;5078538;28;20033;-71
2022/07/15 04:13:03;;;;;;;3.03;0.75;;;15.60;99.90;;;;;;5078761;28;20081;-69
2022/07/15 04:15:28;;;;;;;4.97;0.80;;;15.60;99.90;;;;;;5078296;28;20036;-69
2022/07/15 04:17:54;;;;;;;10.88;1.00;;;15.60;99.90;;;;;;5078266;28;20047;-69
2022/07/15 04:20:21;;;;;;;7.20;0.80;;;15.60;99.90;;;;;;5077489;28;20055;-69
2022/07/15 04:22:46;;;;;;;7.60;1.20;;;15.70;99.90;;;;;;5078359;28;20048;-70
2022/07/15 04:25:17;;;;;;;5.47;0.80;;;15.60;99.90;;;;;;5078088;28;20042;-69
2022/07/15 04:27:44;;;;;;;6.32;0.93;;;15.70;99.90;;;;;;5078059;28;20048;-69
2022/07/15 04:30:10;;;;;;;8.80;0.90;;;15.70;99.90;;;;;;5078321;28;20041;-69
2022/07/15 04:32:36;;;;;;;3.25;0.60;;;15.70;99.90;;;;;;5078015;28;20037;-69
2022/07/15 04:35:03;;;;;;;6.28;0.93;;;15.80;99.90;;;;;;5060730;28;20070;-69
2022/07/15 04:37:29;;;;;;;5.28;0.70;;;15.80;99.90;;;;;;5078230;28;20044;-69
2022/07/15 04:39:55;;;;;;;3.28;0.60;;;15.90;99.90;;;;;;5078240;28;20094;-69
2022/07/15 04:42:21;;;;;;;6.68;0.70;;;16.00;99.90;;;;;;5077901;28;20143;-69
2022/07/15 04:44:49;;;;;;;5.07;0.90;;;16.10;99.90;;;;;;5078028;28;20036;-69
2022/07/15 04:47:15;;;;;;;9.93;1.08;;;16.20;99.90;;;;;;5077449;28;20123;-69
2022/07/15 04:52:25;;;;;;;6.13;0.60;;;16.30;99.90;;;;;;5077900;28;20049;-69
2022/07/15 04:54:54;;;;;;;6.97;0.88;;;16.40;99.90;;;;;;5077499;28;20041;-69
2022/07/15 04:57:20;;;;;;;4.13;1.00;;;16.20;99.90;;;;;;5077211;28;20052;-69
2022/07/15 04:59:46;;;;;;;5.50;0.85;;;16.20;99.90;;;;;;5077568;28;20090;-69
2022/07/15 05:02:12;;;;;;;2.35;0.45;;;16.20;99.90;;;;;;5076904;28;20425;-69
2022/07/15 05:04:38;;;;;;;5.35;0.70;;;16.20;99.90;;;;;;5077565;28;20062;-69
2022/07/15 05:07:05;;;;;;;7.30;0.60;;;16.40;99.90;;;;;;5076232;28;20488;-70
2022/07/15 05:09:30;;;;;;;3.53;0.52;;;16.40;99.90;;;;;;5077381;28;20032;-69
2022/07/15 05:11:57;;;;;;;8.38;1.17;;;16.30;99.90;;;;;;5077468;28;20417;-70
2022/07/15 05:14:22;;;;;;;4.88;0.57;;;16.10;99.90;;;;;;5076113;28;20032;-69
2022/07/15 05:16:49;;;;;;;5.82;0.82;;;16.10;99.90;;;;;;5077149;28;20029;-69
2022/07/15 05:19:14;;;;;;;4.35;0.45;;;16.20;99.90;;;;;;5077310;28;20036;-69
2022/07/15 05:21:40;;;;;;;3.88;0.60;;;16.20;99.90;;;;;;5076973;28;20051;-69
2022/07/15 05:24:06;;;;;;;5.05;0.55;;;16.10;99.90;;;;;;5077104;28;20049;-69
2022/07/15 05:26:32;;;;;;;7.45;0.73;;;16.20;99.90;;;;;;5076372;28;20088;-69
2022/07/15 05:28:59;;;;;;;4.65;0.50;;;16.20;99.90;;;;;;5076807;28;20091;-70
2022/07/15 05:31:24;;;;;;;4.38;0.45;;;16.40;99.90;;;;;;5077270;28;20493;-69
2022/07/15 05:33:52;;;;;;;3.20;0.50;;;16.60;99.90;;;;;;5076093;28;20167;-69
2022/07/15 05:36:20;;;;;;;3.97;0.40;;;16.70;99.90;;;;;;5076983;28;20047;-69
2022/07/15 05:38:45;;;;;;;3.80;0.60;;;16.80;99.90;;;;;;5075694;28;20345;-69
2022/07/15 05:41:11;;;;;;;5.72;0.65;;;16.70;99.90;;;;;;5075893;28;20044;-69
2022/07/15 05:43:37;;;;;;;2.88;0.40;;;16.50;99.90;;;;;;5076548;28;20041;-69
2022/07/15 05:46:04;;;;;;;2.50;0.47;;;16.70;99.90;;;;;;5077035;28;20047;-70
2022/07/15 05:48:29;;;;;;;3.53;0.50;;;16.80;99.90;;;;;;5076489;28;20036;-70
2022/07/15 05:50:55;;;;;;;3.78;0.43;;;16.80;99.90;;;;;;5076783;28;20098;-70
2022/07/15 05:53:22;;;;;;;4.72;0.50;;;16.90;99.90;;;;;;5076754;28;20040;-70
2022/07/15 05:55:48;;;;;;;8.85;1.00;;;17.00;99.90;;;;;;5076267;28;20417;-70
2022/07/15 05:58:13;;;;;;;2.92;0.50;;;17.10;99.90;;;;;;5076532;28;20098;-70
2022/07/15 06:00:39;;;;;;;4.75;0.40;;;17.30;99.90;;;;;;5076462;28;20040;-69
2022/07/15 06:03:05;;;;;;;4.47;0.52;;;17.50;99.90;;;;;;5076603;28;20341;-69
2022/07/15 06:05:31;;;;;;;4.28;0.40;;;17.70;99.90;;;;;;5075485;28;20429;-69
2022/07/15 06:07:57;;;;;;;5.03;0.70;;;17.70;99.90;;;;;;5076335;28;20090;-69
2022/07/15 06:10:23;;;;;;;2.25;0.30;;;17.60;99.90;;;;;;5076726;28;20048;-69
2022/07/15 06:12:49;;;;;;;2.67;0.38;;;17.40;99.90;;;;;;5076230;28;20139;-69
2022/07/15 06:15:15;;;;;;;4.30;0.40;;;17.30;99.90;;;;;;5076359;28;20174;-69
2022/07/15 06:17:41;;;;;;;3.05;0.60;;;17.30;99.90;;;;;;5076460;28;20048;-69
2022/07/15 06:20:08;;;;;;;6.00;0.60;;;17.30;99.90;;;;;;5076475;28;20044;-69
2022/07/15 06:22:34;;;;;;;2.60;0.30;;;17.30;99.90;;;;;;5109283;28;20326;-69
2022/07/15 06:25:00;;;;;;;4.20;0.63;;;17.40;99.90;;;;;;5076391;28;20050;-69
2022/07/15 06:27:25;;;;;;;2.97;0.52;;;17.50;99.90;;;;;;5074521;28;20057;-69
2022/07/15 06:29:51;;;;;;;4.57;0.50;;;17.40;99.90;;;;;;5076446;28;20045;-69
2022/07/15 06:32:18;;;;;;;5.70;0.50;;;17.30;99.90;;;;;;5076574;28;20120;-67
2022/07/15 06:34:44;;;;;;;5.15;0.57;;;17.20;99.90;;;;;;5076282;28;20037;-67
2022/07/15 06:37:10;;;;;;;5.03;0.40;;;17.20;99.90;;;;;;5076366;28;20123;-67
2022/07/15 06:39:36;;;;;;;3.95;0.57;;;17.30;99.90;;;;;;5076193;28;20067;-67
2022/07/15 06:42:02;;;;;;;2.70;0.30;;;17.50;99.90;;;;;;5076216;28;20040;-67
2022/07/15 06:44:28;;;;;;;1.65;0.32;;;17.60;99.90;;;;;;5076243;28;20123;-67
2022/07/15 06:46:53;;;;;;;4.00;0.40;;;17.60;99.90;;;;;;5076396;28;20123;-67
2022/07/15 06:49:19;;;;;;;1.73;0.30;;;17.50;99.90;;;;;;5076026;28;20073;-67
2022/07/15 06:51:45;;;;;;;5.00;0.38;;;17.70;99.90;;;;;;5076187;28;20048;-67
2022/07/15 06:54:11;;;;;;;6.25;0.40;;;17.80;99.90;;;;;;5076333;28;20325;-67
2022/07/15 06:56:38;;;;;;;2.35;0.30;;;17.80;99.90;;;;;;5075530;28;20047;-67
2022/07/15 06:59:03;;;;;;;1.67;0.65;;;17.80;99.90;;;;;;5076267;28;20045;-67
2022/07/15 07:01:29;;;;;;;4.15;0.40;;;17.90;99.90;;;;;;5076067;28;20067;-67
2022/07/15 07:03:55;;;;;;;5.53;0.50;;;18.00;99.90;;;;;;5076261;28;20078;-67
2022/07/15 07:06:22;;;;;;;2.35;0.40;;;17.90;99.90;;;;;;5075919;28;20049;-68
2022/07/15 07:08:48;;;;;;;4.13;0.57;;;18.10;99.90;;;;;;5075996;28;20119;-67
2022/07/15 07:11:14;;;;;;;3.85;0.40;;;18.20;99.90;;;;;;5075775;28;20048;-67
2022/07/15 07:13:40;;;;;;;4.40;0.52;;;18.20;99.90;;;;;;5076079;28;20032;-67
2022/07/15 07:16:06;;;;;;;1.98;0.47;;;18.40;99.90;;;;;;5076127;28;20479;-68
2022/07/15 07:18:33;;;;;;;4.57;0.40;;;18.50;99.90;;;;;;5075659;28;20036;-68
2022/07/15 07:20:59;;;;;;;3.40;0.32;;;18.50;99.90;;;;;;5076091;28;20044;-68
2022/07/15 07:23:26;;;;;;;2.05;0.30;;;18.60;99.90;;;;;;5075729;28;20046;-70
2022/07/15 07:25:55;;;;;;;4.45;0.80;;;18.60;99.90;;;;;;5075664;28;20048;-68
2022/07/15 07:28:21;;;;;;;5.63;0.50;;;18.60;99.90;;;;;;5079034;28;20352;-67
2022/07/15 07:30:49;;;;;;;2.45;0.50;;;18.60;99.90;;;;;;5079273;28;20049;-67
2022/07/15 07:33:15;;;;;;;2.35;0.30;;;18.80;99.90;;;;;;5079409;28;20040;-67
2022/07/15 07:35:42;;;;;;;2.22;0.32;;;18.70;99.90;;;;;;5079189;28;20044;-68
2022/07/15 07:38:08;;;;;;;3.15;0.40;;;18.80;99.90;;;;;;5061363;28;20391;-69
2022/07/15 07:40:34;;;;;;;4.40;0.43;;;19.00;99.90;;;;;;5079375;28;20040;-69
2022/07/15 07:43:00;;;;;;;4.57;0.43;;;19.10;99.90;;;;;;5080657;28;20440;-69
2022/07/15 07:45:28;;;;;;;3.25;0.40;;;18.90;99.90;;;;;;5078886;28;20097;-68
2022/07/15 07:47:54;;;;;;;3.95;0.30;;;18.60;99.90;;;;;;5079021;28;20437;-68
2022/07/15 07:50:20;;;;;;;2.72;0.25;;;18.20;99.90;;;;;;5078853;28;20051;-68
2022/07/15 07:52:46;;;;;;;4.60;0.60;;;18.00;99.90;;;;;;5078714;28;20369;-68
2022/07/15 07:55:12;;;;;;;3.08;0.30;;;18.00;99.90;;;;;;5078831;28;20036;-68
2022/07/15 07:57:58;;;;;;;1.95;0.30;;;18.10;99.90;;;;;;5078348;28;20109;-68
2022/07/15 08:00:28;;;;;;;4.13;0.50;;;18.10;99.90;;;;;;5079092;28;20048;-68
2022/07/15 08:02:56;;;;;;;2.70;0.30;;;18.10;99.90;;;;;;5078794;28;20086;-67
2022/07/15 08:05:21;;;;;;;2.72;0.30;;;18.20;99.90;;;;;;5078488;28;20044;-68
2022/07/15 08:07:47;;;;;;;2.65;0.47;;;18.20;99.90;;;;;;5078782;28;20043;-67
2022/07/15 08:10:14;;;;;;;5.85;0.22;;;18.30;99.90;;;;;;5078703;28;20040;-68
2022/07/15 08:12:42;;;;;;;4.18;0.38;;;18.20;99.90;;;;;;5078842;28;20058;-70
2022/07/15 08:15:10;;;;;;;4.28;0.50;;;18.10;99.90;;;;;;5077320;28;20040;-67
2022/07/15 08:17:37;;;;;;;2.10;0.30;;;18.00;99.90;;;;;;5078609;28;20037;-68
2022/07/15 08:20:07;;;;;;;4.32;0.65;;;18.00;99.90;;;;;;5078281;28;20093;-68
2022/07/15 08:22:33;;;;;;;3.50;0.40;;;18.00;99.90;;;;;;5078566;28;20040;-69
2022/07/15 08:24:59;;;;;;;2.38;0.45;;;17.90;99.90;;;;;;5078384;28;20093;-69
2022/07/15 08:27:25;;;;;;;2.67;0.30;;;18.10;99.90;;;;;;5077642;28;20143;-69
2022/07/15 08:29:51;;;;;;;4.13;0.45;;;18.40;99.90;;;;;;5078310;28;20115;-69
2022/07/15 08:32:17;;;;;;;3.00;0.30;;;18.50;99.90;;;;;;5078014;28;20477;-70
2022/07/15 08:34:43;;;;;;;1.90;0.43;;;18.40;99.90;;;;;;5078304;28;20055;-67
2022/07/15 08:37:09;;;;;;;3.08;0.38;;;18.20;99.90;;;;;;5076911;28;20032;-67
2022/07/15 08:39:37;;;;;;;3.00;0.20;;;18.10;99.90;;;;;;5078317;28;20033;-67
2022/07/15 08:42:03;;;;;;;3.53;0.38;;;18.10;99.90;;;;;;5076929;28;20106;-67
2022/07/15 08:44:30;;;;;;;1.60;0.10;;;18.20;99.90;;;;;;5078065;28;20044;-67
2022/07/15 08:47:01;;;;;;;2.45;0.30;;;18.30;99.90;;;;;;5077749;28;20051;-67
2022/07/15 08:49:29;;;;;;;3.20;0.20;;;18.50;99.90;;;;;;5077623;28;20037;-68
2022/07/15 08:51:57;;;;;;;4.35;0.40;;;18.50;99.90;;;;;;5077796;28;20421;-67
2022/07/15 08:54:23;;;;;;;3.28;0.30;;;18.70;99.90;;;;;;5077773;28;20032;-67
2022/07/15 08:56:48;;;;;;;3.30;0.20;;;18.90;99.90;;;;;;5077319;28;20090;-67
2022/07/15 08:59:14;;;;;;;2.67;0.30;;;18.90;99.90;;;;;;5077794;28;20040;-67
2022/07/15 09:01:46;;;;;;;2.55;0.32;;;19.00;99.90;;;;;;5076530;28;20071;-68
2022/07/15 09:04:13;;;;;;;5.25;0.50;;;19.20;99.90;;;;;;5077622;28;20041;-66
2022/07/15 09:06:42;;;;;;;4.25;0.20;;;19.30;99.90;;;;;;5077582;28;20299;-67
2022/07/15 09:09:22;;;;;;;0.65;0.25;;;19.30;99.90;;;;;;5077283;28;20028;-67
2022/07/15 09:12:14;;;;;;;3.20;0.22;;;19.70;99.90;;;;;;5077778;28;20056;-66
2022/07/15 09:14:42;;;;;;;2.65;0.20;;;19.70;99.90;;;;;;5075365;28;20048;-68
2022/07/15 09:17:11;;;;;;;3.85;0.20;;;19.60;99.90;;;;;;5077184;28;20386;-67
2022/07/15 09:20:01;;;;;;;2.63;0.20;;;19.60;99.90;;;;;;5077138;28;20127;-68
2022/07/15 09:22:30;;;;;;;4.90;0.57;;;19.70;99.90;;;;;;5077020;28;20044;-69
2022/07/15 09:25:10;;;;;;;1.75;0.20;;;19.60;99.90;;;;;;5077185;28;20044;-67
2022/07/15 09:27:39;;;;;;;2.35;0.20;;;19.50;99.90;;;;;;5076471;28;20056;-68
2022/07/15 09:36:02;;;;;;;4.18;0.40;;;19.40;99.90;;;;;;5076287;28;20358;-69
2022/07/15 09:38:40;;;;;;;4.10;0.25;;;19.20;99.90;;;;;;5076820;28;20055;-69
2022/07/15 09:41:08;;;;;;;1.88;0.15;;;19.20;99.90;;;;;;5076704;28;20040;-69
2022/07/15 09:43:50;;;;;;;0.68;0.17;;;19.00;99.90;;;;;;5076753;28;20364;-69
2022/07/15 09:46:17;;;;;;;3.38;0.25;;;19.30;99.90;;;;;;5076994;28;20311;-69
2022/07/15 09:48:45;;;;;;;2.10;0.30;;;19.40;99.90;;;;;;5075401;28;20044;-68
2022/07/15 09:51:11;;;;;;;2.78;0.20;;;19.40;99.90;;;;;;5076602;28;20417;-69
2022/07/15 09:53:39;;;;;;;1.08;0.30;;;19.20;99.90;;;;;;5076880;28;20044;-69
2022/07/15 09:56:08;;;;;;;1.17;0.17;;;18.90;99.90;;;;;;5076135;28;20036;-69
2022/07/15 09:58:38;;;;;;;2.55;0.20;;;19.10;99.90;;;;;;5076685;28;20076;-69
2022/07/15 10:01:03;;;;;;;2.72;0.40;;;19.20;99.90;;;;;;5076807;28;20051;-68
2022/07/15 10:03:32;;;;;;;0.75;0.28;;;19.30;99.90;;;;;;5076677;28;20037;-69
2022/07/15 10:06:02;;;;;;;2.40;0.20;;;19.40;99.90;;;;;;5076588;28;20054;-69
2022/07/15 10:08:30;;;;;;;2.58;0.28;;;19.60;99.90;;;;;;5076274;28;20422;-69
2022/07/15 10:10:57;;;;;;;2.40;0.40;;;19.70;99.90;;;;;;5076806;28;20036;-69
2022/07/15 10:13:35;;;;;;;3.65;0.30;;;20.00;99.90;;;;;;5076501;28;20032;-69
2022/07/15 10:16:36;;;;;;;3.30;0.30;;;20.40;99.90;;;;;;5076676;28;20086;-69
2022/07/15 10:19:38;;;;;;;8.80;0.40;;;20.40;99.90;;;;;;5060632;28;20306;-69
2022/07/15 10:22:19;;;;;;;1.55;0.20;;;20.40;99.90;;;;;;5076532;28;20036;-68
2022/07/15 10:24:45;;;;;;;1.95;0.30;;;20.40;99.60;;;;;;5076445;28;20090;-68
2022/07/15 10:27:46;;;;;;;1.45;0.20;;;20.30;99.80;;;;;;5074536;28;20045;-68
2022/07/15 10:30:12;;;;;;;1.95;0.20;;;20.30;99.80;;;;;;5076463;28;20079;-69
2022/07/15 10:33:02;;;;;;;2.50;0.30;;;20.20;99.80;;;;;;5075653;28;20449;-68
2022/07/15 10:36:02;;;;;;;2.42;0.30;;;20.40;99.80;;;;;;5076300;28;20033;-69
2022/07/15 10:38:38;;;;;;;3.13;0.63;;;20.40;99.90;;;;;;5076562;28;20420;-82
2022/07/15 10:41:11;;;;;;;3.80;0.35;;;20.60;99.80;;;;;;5076944;28;20047;-68
2022/07/15 10:43:52;;;;;;;1.85;0.55;;;20.80;99.90;;;;;;5075212;28;20041;-68
2022/07/15 10:46:18;;;;;;;2.38;0.28;;;21.00;99.90;;;;;;5058470;28;20079;-69
2022/07/15 10:49:05;;;;;;;1.48;0.20;;;20.90;99.70;;;;;;5075880;28;20072;-68
2022/07/15 10:51:37;;;;;;;3.08;0.20;;;21.00;99.90;;;;;;5064598;28;20402;-88
2022/07/15 10:54:18;;;;;;;1.92;0.45;;;20.60;99.80;;;;;;5075306;28;20317;-68
2022/07/15 10:56:45;;;;;;;3.85;0.32;;;20.50;99.90;;;;;;5075740;28;20036;-68
2022/07/15 10:59:14;;;;;;;3.88;0.70;;;20.60;99.90;;;;;;5076292;28;20055;-67
2022/07/15 11:01:45;;;;;;;2.85;0.52;;;20.40;99.90;;;;;;5078820;28;20068;-68
2022/07/15 11:04:21;;;;;;;2.53;0.20;;;20.10;99.90;;;;;;5079875;28;20040;-69
2022/07/15 11:07:11;;;;;;;1.40;0.30;;;20.20;99.90;;;;;;5079668;28;20115;-68
2022/07/15 11:09:46;;;;;;;3.88;0.40;;;20.10;99.70;;;;;;5079530;28;20448;-68
2022/07/15 11:12:17;;;;;;;4.35;0.30;;;20.00;99.80;;;;;;5079925;28;20072;-68
2022/07/15 11:14:44;;;;;;;1.50;0.30;;;19.80;99.90;;;;;;5079570;28;20036;-69
2022/07/15 11:17:11;;;;;;;1.75;0.10;;;19.90;99.90;;;;;;5079741;28;20036;-69
2022/07/15 11:19:38;;;;;;;1.25;0.28;;;19.90;99.90;;;;;;5079336;28;20444;-68
2022/07/15 11:22:04;;;;;;;1.35;0.30;;;20.00;99.90;;;;;;5080415;28;20044;-67
2022/07/15 11:24:31;;;;;;;3.65;0.20;;;19.80;99.90;;;;;;5079689;28;20044;-67
2022/07/15 11:27:00;;;;;;;4.70;0.40;;;19.80;99.90;;;;;;5078872;28;20071;-67
2022/07/15 11:29:25;;;;;;;3.17;0.35;;;19.80;99.90;;;;;;5079557;28;20044;-67
2022/07/15 11:31:51;;;;;;;0.30;0.10;;;19.80;99.80;;;;;;5079243;28;20425;-69
2022/07/15 11:34:17;;;;;;;1.58;0.32;;;19.80;99.80;;;;;;5079582;28;20028;-69
2022/07/15 11:36:43;;;;;;;1.65;0.30;;;19.90;99.80;;;;;;5079257;28;20036;-69
2022/07/15 11:39:08;;;;;;;1.30;0.20;;;20.10;99.90;;;;;;5079440;28;20048;-69
2022/07/15 11:44:31;;;;;;;1.73;0.30;;;20.30;99.90;;;;;;5078936;28;20052;-70
2022/07/15 11:47:01;;;;;;;2.28;0.20;;;20.00;99.80;;;;;;5079301;28;20041;-69
2022/07/15 11:49:27;;;;;;;1.75;0.20;;;20.00;99.90;;;;;;5078965;28;20036;-67
2022/07/15 11:51:54;;;;;;;3.70;0.30;;;20.00;99.90;;;;;;5078959;28;20501;-67
2022/07/15 11:54:20;;;;;;;2.28;0.40;;;20.00;99.90;;;;;;5078842;28;20041;-68
2022/07/15 11:57:05;;;;;;;1.77;0.20;;;19.80;99.80;;;;;;5078533;28;20060;-67
2022/07/15 11:59:31;;;;;;;2.15;0.20;;;19.90;99.90;;;;;;5079090;28;20038;-70
2022/07/15 12:02:03;;;;;;;1.15;0.17;;;19.90;99.90;;;;;;5078978;28;20111;-70
2022/07/15 12:04:29;;;;;;;1.73;0.20;;;20.20;99.90;;;;;;5078948;28;20042;-70
2022/07/15 12:06:55;;;;;;;1.48;0.20;;;20.30;99.90;;;;;;5078633;28;20036;-69
2022/07/15 12:09:20;;;;;;;1.90;0.30;;;20.50;99.90;;;;;;5078706;28;20051;-70
2022/07/15 12:11:46;;;;;;;2.65;0.30;;;20.80;99.90;;;;;;5078359;28;20033;-70
2022/07/15 12:14:18;;;;;;;4.60;0.38;;;21.10;99.90;;;;;;5077677;28;20124;-70
2022/07/15 12:16:48;;;;;;;3.05;0.30;;;21.50;99.80;;;;;;5078939;28;20055;-69
2022/07/15 12:19:19;;;;;;;2.15;0.40;;;21.10;99.70;;;;;;5088594;28;20107;-69
2022/07/15 12:21:49;;;;;;;1.13;0.30;;;20.80;99.70;;;;;;5078441;28;20076;-69
2022/07/15 12:24:22;;;;;;;1.48;0.30;;;20.60;99.70;;;;;;5088329;28;20041;-73
2022/07/15 12:26:51;;;;;;;5.18;0.38;;;20.20;99.90;;;;;;5095945;28;20052;-70
2022/07/15 12:29:19;;;;;;;0.70;0.20;;;20.10;99.90;;;;;;5098068;28;20119;-71
2022/07/15 12:32:11;;;;;;;1.13;0.45;;;20.10;99.90;;;;;;5098285;28;20032;-70
2022/07/15 12:34:57;;;;;;;3.80;0.40;;;19.90;99.90;;;;;;5097613;28;20124;-71
2022/07/15 12:37:24;;;;;;;;;;;19.90;99.90;;;;;;5098394;28;20421;-70
2022/07/15 12:39:56;;;;;;;3.13;0.40;;;19.90;99.90;;;;;;5093223;28;20263;-69
2022/07/15 12:42:22;;;;;;;0.70;0.30;;;19.90;99.90;;;;;;5077688;28;20119;-69
2022/07/15 12:45:10;;;;;;;1.98;0.40;;;20.00;99.90;;;;;;5076587;28;20465;-70
2022/07/15 12:47:37;;;;;;;1.17;0.30;;;20.20;99.90;;;;;;5077745;28;20040;-68
2022/07/15 12:50:04;;;;;;;2.47;0.30;;;20.50;99.90;;;;;;5077691;28;20048;-68
2022/07/15 12:52:38;;;;;;;2.95;0.40;;;20.40;99.90;;;;;;5078403;28;20337;-68
2022/07/15 12:55:19;;;;;;;3.22;0.30;;;20.60;99.90;;;;;;5077437;28;20040;-70
2022/07/15 12:57:46;;;;;;;4.53;0.50;;;20.50;99.90;;;;;;5077108;28;20048;-68
2022/07/15 13:00:23;;;;;;;3.58;0.68;;;20.50;99.90;;;;;;5077514;28;20108;-69
2022/07/15 13:02:59;;;;;;;1.33;0.40;;;20.40;99.90;;;;;;5093231;28;20040;-69
2022/07/15 13:05:26;;;;;;;2.60;0.45;;;20.50;99.90;;;;;;5077628;28;20064;-69
2022/07/15 13:07:51;;;;;;;2.97;0.50;;;20.40;99.90;;;;;;5085459;28;20082;-69